Time;durP1;ratioP1;P1;durP2;ratioP2;P2;SDS_P1;SDS_P2;PMS_P1;PMS_P2;Temp;Humidity;BMP_temperature;BMP_pressure;BME280_temperature;BME280_humidity;BME280_pressure;Samples;Min_cycle;Max_cycle;Signal;HPM_P1;HPM_P2
2021/11/12 00:13:43;;;;;;;43.73;24.50;;;11.00;99.90;;;;;;6150794;23;20516;-65
2021/11/12 00:16:08;;;;;;;48.50;25.03;;;11.00;99.90;;;;;;6150173;23;20537;-64
2021/11/12 00:18:42;;;;;;;41.40;23.67;;;11.00;99.90;;;;;;6150389;23;20641;-64
2021/11/12 00:21:08;;;;;;;42.67;23.17;;;11.00;99.90;;;;;;6149792;23;20682;-64
2021/11/12 00:23:38;;;;;;;46.17;24.17;;;11.00;99.90;;;;;;6150408;23;20610;-64
2021/11/12 00:26:04;;;;;;;47.47;24.17;;;11.00;99.90;;;;;;6148118;23;20177;-64
2021/11/12 00:28:37;;;;;;;51.40;27.03;;;11.00;99.90;;;;;;6149527;23;20850;-64
2021/11/12 00:31:16;;;;;;;48.73;25.43;;;11.00;99.90;;;;;;6148372;23;20786;-64
2021/11/12 00:34:31;;;;;;;;;;;;;;;;;;;;;
2021/11/12 00:40:01;;;;;;;52.07;24.43;;;11.00;99.90;;;;;;6149753;23;20556;-64
2021/11/12 00:42:15;;;;;;;48.40;25.83;;;10.90;99.90;;;;;;6137373;23;20695;-64
2021/11/12 00:45:18;;;;;;;49.27;25.23;;;11.00;99.90;;;;;;6148188;23;20508;-65
2021/11/12 00:50:25;;;;;;;52.23;25.17;;;10.90;99.90;;;;;;6149015;23;20584;-64
2021/11/12 00:55:29;;;;;;;52.90;24.70;;;10.80;99.90;;;;;;6162811;23;20520;-64
2021/11/12 00:57:56;;;;;;;49.70;24.13;;;10.80;99.90;;;;;;6152760;23;20489;-64
2021/11/12 01:00:25;;;;;;;50.87;25.70;;;10.80;99.90;;;;;;6150863;23;20596;-64
2021/11/12 01:02:55;;;;;;;50.47;24.87;;;10.90;99.90;;;;;;6151712;23;20589;-64
2021/11/12 01:05:20;;;;;;;54.63;24.90;;;10.90;99.90;;;;;;6150923;23;20656;-64
2021/11/12 01:07:46;;;;;;;53.10;23.67;;;10.90;99.90;;;;;;6148814;23;21081;-64
2021/11/12 01:10:14;;;;;;;53.00;25.23;;;10.80;99.90;;;;;;6149763;23;20181;-64
2021/11/12 01:12:42;;;;;;;51.80;24.17;;;10.80;99.90;;;;;;6150712;23;20161;-64
2021/11/12 01:15:12;;;;;;;48.23;25.17;;;10.80;99.90;;;;;;6149943;23;20681;-64
2021/11/12 01:17:44;;;;;;;56.23;24.73;;;10.80;99.90;;;;;;6150600;23;20542;-64
2021/11/12 01:20:15;;;;;;;55.10;25.50;;;10.80;99.90;;;;;;6147539;23;20599;-64
2021/11/12 01:22:41;;;;;;;62.27;26.13;;;10.80;99.90;;;;;;6149863;23;20644;-64
2021/11/12 01:25:11;;;;;;;61.30;28.07;;;10.80;99.90;;;;;;6150299;23;20620;-64
2021/11/12 01:27:39;;;;;;;57.47;27.27;;;10.80;99.90;;;;;;6150566;23;20526;-64
2021/11/12 01:30:16;;;;;;;51.93;23.50;;;10.80;99.90;;;;;;6148971;23;20549;-64
2021/11/12 01:32:45;;;;;;;55.87;25.50;;;10.70;99.90;;;;;;6147406;23;20576;-64
2021/11/12 01:35:12;;;;;;;55.13;26.53;;;10.70;99.90;;;;;;6150216;23;20545;-65
2021/11/12 01:37:43;;;;;;;50.17;22.93;;;10.70;99.90;;;;;;6150823;23;20542;-64
2021/11/12 01:40:18;;;;;;;53.63;24.70;;;10.70;99.90;;;;;;6148364;23;20621;-64
2021/11/12 01:43:02;;;;;;;58.17;26.10;;;10.80;99.90;;;;;;6150525;23;20659;-65
2021/11/12 01:45:57;;;;;;;53.80;25.70;;;10.70;99.90;;;;;;6148288;23;20573;-64
2021/11/12 01:48:49;;;;;;;53.60;26.10;;;10.70;99.90;;;;;;6150184;23;20482;-64
2021/11/12 01:56:30;;;;;;;54.67;25.60;;;10.70;99.90;;;;;;6150233;23;21082;-64
2021/11/12 02:01:32;;;;;;;56.10;26.10;;;10.70;99.90;;;;;;6152342;23;20643;-63
2021/11/12 02:03:58;;;;;;;46.30;23.87;;;10.70;99.90;;;;;;6149191;23;20585;-64
2021/11/12 02:06:26;;;;;;;53.40;24.17;;;10.70;99.90;;;;;;6150473;23;20640;-64
2021/11/12 02:08:58;;;;;;;48.63;24.73;;;10.70;99.90;;;;;;6147868;23;20464;-64
2021/11/12 02:11:26;;;;;;;49.97;24.67;;;10.70;99.90;;;;;;6148815;23;20989;-64
2021/11/12 02:13:52;;;;;;;49.70;24.50;;;10.70;99.90;;;;;;6149993;23;20542;-65
2021/11/12 02:16:36;;;;;;;52.90;24.10;;;10.80;99.90;;;;;;6148317;23;20573;-65
2021/11/12 02:19:12;;;;;;;58.00;25.60;;;10.80;99.90;;;;;;6149056;23;20205;-64
2021/11/12 02:21:47;;;;;;;50.63;24.70;;;10.80;99.90;;;;;;6149151;23;20715;-65
2021/11/12 02:24:15;;;;;;;62.03;28.07;;;10.80;99.90;;;;;;6146542;23;20611;-65
2021/11/12 02:26:45;;;;;;;58.23;26.77;;;10.80;99.90;;;;;;6149539;23;20661;-65
2021/11/12 02:29:12;;;;;;;53.27;26.70;;;10.80;99.90;;;;;;6149187;23;20494;-65
2021/11/12 02:31:40;;;;;;;56.13;26.30;;;10.80;99.90;;;;;;6148743;23;20928;-65
2021/11/12 02:34:12;;;;;;;54.23;23.77;;;10.80;99.90;;;;;;6148632;23;20557;-65
2021/11/12 02:36:45;;;;;;;57.90;23.43;;;10.80;99.90;;;;;;6151678;23;21019;-65
2021/11/12 02:39:13;;;;;;;55.33;22.40;;;10.80;99.90;;;;;;6152075;23;20569;-65
2021/11/12 02:41:41;;;;;;;58.80;34.73;;;10.70;99.90;;;;;;6156558;23;20585;-63
2021/11/12 02:44:10;;;;;;;203.40;145.13;;;10.70;99.90;;;;;;6150473;23;21221;-64
2021/11/12 02:46:36;;;;;;;247.60;140.27;;;10.70;99.90;;;;;;6173259;23;20561;-63
2021/11/12 02:49:05;;;;;;;244.40;135.60;;;10.70;99.90;;;;;;6149541;23;20548;-63
2021/11/12 02:51:35;;;;;;;345.83;156.57;;;10.70;99.90;;;;;;6149822;23;20589;-63
2021/11/12 02:54:04;;;;;;;317.20;156.77;;;10.60;99.90;;;;;;6151594;23;20953;-64
2021/11/12 02:56:31;;;;;;;322.80;148.23;;;10.60;99.90;;;;;;6150225;23;20551;-63
2021/11/12 02:59:04;;;;;;;387.00;155.50;;;10.70;99.90;;;;;;6150375;23;20569;-64
2021/11/12 03:01:38;;;;;;;371.20;150.50;;;10.70;99.90;;;;;;6150293;23;20604;-64
2021/11/12 03:04:05;;;;;;;358.40;137.83;;;10.70;99.90;;;;;;6153233;23;20636;-65
2021/11/12 03:06:32;;;;;;;372.70;144.73;;;10.70;99.90;;;;;;6153128;23;20528;-65
2021/11/12 03:09:05;;;;;;;384.63;148.67;;;10.70;99.90;;;;;;6153973;23;20556;-65
2021/11/12 03:11:34;;;;;;;42.77;20.50;;;10.60;99.90;;;;;;6152900;23;20616;-65
2021/11/12 03:14:04;;;;;;;38.60;21.47;;;10.60;99.90;;;;;;6152003;23;20541;-64
2021/11/12 03:16:35;;;;;;;43.70;22.10;;;10.60;99.90;;;;;;6153353;23;20588;-66
2021/11/12 03:19:03;;;;;;;39.27;20.57;;;10.60;99.90;;;;;;6152465;23;20802;-65
2021/11/12 03:21:29;;;;;;;40.50;21.00;;;10.60;99.90;;;;;;6174856;23;21198;-65
2021/11/12 03:24:05;;;;;;;38.93;20.90;;;10.60;99.90;;;;;;6152547;23;20647;-64
2021/11/12 04:41:23;;;;;;;43.63;23.30;;;10.50;99.90;;;;;;6150584;23;20623;-64
2021/11/12 04:49:35;;;;;;;46.00;26.53;;;10.50;99.90;;;;;;6151434;23;20556;-64
2021/11/12 05:46:16;;;;;;;44.57;26.07;;;10.30;99.90;;;;;;6160512;23;20553;-64
2021/11/12 05:57:17;;;;;;;51.73;25.53;;;10.20;99.90;;;;;;6144145;23;20616;-63
2021/11/12 05:59:43;;;;;;;56.17;23.93;;;10.20;99.90;;;;;;6150173;23;20597;-66
2021/11/12 06:02:11;;;;;;;44.90;24.97;;;10.10;99.90;;;;;;6149226;23;20593;-63
2021/11/12 06:04:37;;;;;;;44.23;25.33;;;10.00;99.90;;;;;;6151642;23;20604;-63
2021/11/12 06:07:06;;;;;;;43.40;23.20;;;10.00;99.90;;;;;;6147852;23;20568;-63
2021/11/12 06:09:35;;;;;;;44.67;24.90;;;10.10;99.90;;;;;;6150128;23;20173;-63
2021/11/12 06:12:00;;;;;;;43.70;24.77;;;10.00;99.90;;;;;;6147269;23;20589;-64
2021/11/12 06:14:28;;;;;;;41.77;23.27;;;10.00;99.90;;;;;;6148434;23;20584;-63
2021/11/12 06:16:55;;;;;;;47.53;25.13;;;10.00;99.90;;;;;;6149821;23;20541;-63
2021/11/12 06:19:21;;;;;;;44.33;25.40;;;10.00;99.90;;;;;;6148506;23;20568;-63
2021/11/12 06:21:48;;;;;;;46.17;24.10;;;10.00;99.90;;;;;;6148771;23;20619;-63
2021/11/12 06:24:21;;;;;;;42.87;23.97;;;10.00;99.90;;;;;;6150401;23;21005;-64
2021/11/12 06:26:47;;;;;;;40.67;23.43;;;10.00;99.90;;;;;;6148163;23;20894;-63
2021/11/12 06:29:13;;;;;;;45.00;25.00;;;10.10;99.90;;;;;;6150514;23;20549;-64
2021/11/12 06:31:39;;;;;;;42.00;23.60;;;10.00;99.90;;;;;;6144845;23;20633;-63
2021/11/12 06:34:06;;;;;;;41.20;21.90;;;9.90;99.90;;;;;;6150915;23;20569;-63
2021/11/12 06:36:32;;;;;;;47.30;27.23;;;9.90;99.90;;;;;;6152753;23;20670;-63
2021/11/12 06:38:59;;;;;;;49.40;24.20;;;9.80;99.90;;;;;;6149690;23;20157;-63
2021/11/12 06:41:40;;;;;;;45.63;24.13;;;9.80;99.90;;;;;;6150025;23;20589;-63
2021/11/12 06:52:18;;;;;;;41.00;21.27;;;9.80;99.90;;;;;;6153175;23;20711;-63
2021/11/12 06:54:47;;;;;;;50.77;21.70;;;9.80;99.90;;;;;;6152174;23;20565;-63
2021/11/12 06:57:14;;;;;;;43.63;21.33;;;9.70;99.90;;;;;;6153055;23;20628;-63
2021/11/12 06:59:43;;;;;;;43.13;21.47;;;9.60;99.90;;;;;;6153486;23;20580;-63
2021/11/12 07:02:12;;;;;;;39.67;20.43;;;9.60;99.90;;;;;;6153469;23;20608;-64
2021/11/12 07:04:40;;;;;;;37.63;19.80;;;9.80;99.90;;;;;;6151562;23;20600;-63
2021/11/12 07:07:06;;;;;;;40.17;20.53;;;9.70;99.90;;;;;;6152967;23;20600;-63
2021/11/12 07:09:33;;;;;;;37.83;19.77;;;9.70;99.90;;;;;;6154238;23;20568;-62
2021/11/12 07:11:59;;;;;;;34.80;18.07;;;9.70;99.90;;;;;;6152833;23;20643;-62
2021/11/12 07:14:25;;;;;;;34.07;18.80;;;9.70;99.90;;;;;;6152716;23;20533;-63
2021/11/12 07:16:54;;;;;;;35.70;18.63;;;9.70;99.90;;;;;;6154343;23;20549;-63
2021/11/12 07:19:19;;;;;;;32.20;16.60;;;9.70;99.90;;;;;;6153134;23;20656;-63
2021/11/12 07:21:51;;;;;;;40.00;19.77;;;9.50;99.90;;;;;;6152343;23;20640;-64
2021/11/12 07:24:22;;;;;;;32.90;18.37;;;9.50;99.90;;;;;;6153704;23;20182;-62
2021/11/12 07:26:50;;;;;;;33.03;18.60;;;9.60;99.90;;;;;;6151446;23;20573;-63
2021/11/12 07:29:18;;;;;;;33.27;17.47;;;9.60;99.90;;;;;;6153633;23;20573;-62
2021/11/12 07:31:44;;;;;;;33.97;18.00;;;9.50;99.90;;;;;;6151081;23;20601;-62
2021/11/12 07:34:10;;;;;;;36.43;20.27;;;9.60;99.90;;;;;;6151841;23;20995;-62
2021/11/12 07:36:47;;;;;;;36.57;18.57;;;9.60;99.90;;;;;;6151474;23;20617;-62
2021/11/12 07:39:21;;;;;;;34.07;18.27;;;9.70;99.90;;;;;;6149403;23;20161;-63
2021/11/12 07:44:41;;;;;;;34.87;17.93;;;9.60;99.90;;;;;;6163136;23;20583;-63
2021/11/12 07:47:14;;;;;;;35.10;17.97;;;9.70;99.90;;;;;;6153378;23;20558;-63
2021/11/12 07:49:45;;;;;;;36.83;18.00;;;9.70;99.90;;;;;;6152474;23;20905;-63
2021/11/12 07:52:14;;;;;;;36.80;16.90;;;9.70;99.90;;;;;;6150844;23;20581;-63
2021/11/12 07:54:40;;;;;;;30.40;15.10;;;9.60;99.90;;;;;;6153084;23;20532;-63
2021/11/12 07:57:09;;;;;;;32.80;15.10;;;9.60;99.90;;;;;;6152440;23;20613;-63
2021/11/12 07:59:39;;;;;;;30.37;15.27;;;9.50;99.90;;;;;;6153041;23;20201;-63
2021/11/12 08:02:06;;;;;;;22.13;11.30;;;9.50;99.90;;;;;;6152811;23;20616;-64
2021/11/12 08:04:31;;;;;;;22.43;12.40;;;9.60;99.90;;;;;;6154462;23;20589;-63
2021/11/12 08:07:01;;;;;;;23.67;12.63;;;9.60;99.90;;;;;;6154852;23;20568;-63
2021/11/12 08:09:35;;;;;;;21.00;12.23;;;9.60;99.90;;;;;;6155252;23;20178;-63
2021/11/12 08:12:10;;;;;;;22.27;10.40;;;9.60;99.90;;;;;;6151859;23;20918;-63
2021/11/12 08:17:31;;;;;;;;;;;;;;;;;;;;;
2021/11/12 08:19:47;;;;;;;19.67;10.73;;;9.60;99.90;;;;;;6161970;23;20181;-63
2021/11/12 08:22:23;;;;;;;18.73;10.57;;;9.60;99.90;;;;;;6155259;23;20623;-63
2021/11/12 08:25:19;;;;;;;22.77;10.77;;;9.60;99.90;;;;;;6154010;23;20599;-63
2021/11/12 08:40:39;;;;;;;19.23;11.80;;;9.60;99.90;;;;;;6155568;23;20716;-63
2021/11/12 08:45:36;;;;;;;17.33;11.13;;;9.80;99.90;;;;;;6154964;23;20533;-63
2021/11/12 08:48:08;;;;;;;19.40;11.97;;;9.80;99.90;;;;;;6156132;23;20205;-63
2021/11/12 08:50:41;;;;;;;25.20;12.70;;;9.80;99.90;;;;;;6150722;23;21200;-63
2021/11/12 08:53:09;;;;;;;22.63;12.00;;;9.90;99.90;;;;;;6154260;23;21007;-63
2021/11/12 08:55:41;;;;;;;20.93;12.37;;;9.90;99.90;;;;;;6152403;23;20613;-63
2021/11/12 08:58:10;;;;;;;22.50;12.40;;;10.00;99.90;;;;;;6152142;23;20536;-63
2021/11/12 09:00:37;;;;;;;19.90;12.50;;;10.00;99.90;;;;;;6152155;23;21200;-63
2021/11/12 09:03:03;;;;;;;18.83;11.17;;;10.00;99.90;;;;;;6153133;23;20588;-64
2021/11/12 09:05:32;;;;;;;21.40;12.30;;;10.00;99.90;;;;;;6153788;23;20533;-63
2021/11/12 09:08:01;;;;;;;23.43;12.40;;;9.90;99.90;;;;;;6150851;23;20184;-64
2021/11/12 09:10:28;;;;;;;22.23;12.00;;;10.00;99.90;;;;;;6151387;23;20593;-63
2021/11/12 09:12:59;;;;;;;24.60;12.30;;;10.00;99.90;;;;;;6152302;23;20540;-63
2021/11/12 09:15:32;;;;;;;21.47;11.80;;;10.00;99.90;;;;;;6152103;23;20525;-63
2021/11/12 09:18:02;;;;;;;22.60;12.20;;;10.00;99.90;;;;;;6152816;23;20537;-63
2021/11/12 09:20:30;;;;;;;24.30;12.20;;;10.00;99.90;;;;;;6152541;23;20652;-63
2021/11/12 09:22:58;;;;;;;25.20;13.23;;;9.90;99.90;;;;;;6152277;23;20608;-63
2021/11/12 09:25:25;;;;;;;24.30;13.27;;;9.80;99.90;;;;;;6152536;23;20537;-63
2021/11/12 09:27:51;;;;;;;22.63;13.00;;;9.70;99.90;;;;;;6152698;23;20939;-63
2021/11/12 09:30:22;;;;;;;24.13;13.03;;;9.80;99.90;;;;;;6151247;23;20592;-63
2021/11/12 09:32:54;;;;;;;22.80;13.30;;;9.80;99.90;;;;;;6151607;23;20544;-63
2021/11/12 09:35:23;;;;;;;23.10;12.37;;;9.80;99.90;;;;;;6152946;23;20584;-63
2021/11/12 09:37:52;;;;;;;18.83;11.60;;;9.70;99.90;;;;;;6153083;23;20518;-63
2021/11/12 09:40:20;;;;;;;21.63;13.10;;;9.90;99.90;;;;;;6150787;23;20659;-63
2021/11/12 09:42:47;;;;;;;22.83;12.90;;;9.90;99.90;;;;;;6150339;23;20629;-63
2021/11/12 09:45:14;;;;;;;21.67;12.60;;;10.00;99.90;;;;;;6150483;23;20620;-63
2021/11/12 09:47:41;;;;;;;21.70;13.27;;;10.00;99.90;;;;;;6151894;23;20529;-63
2021/11/12 09:50:23;;;;;;;20.57;13.90;;;10.00;99.90;;;;;;6149207;23;20585;-63
2021/11/12 09:52:49;;;;;;;22.07;13.70;;;10.00;99.90;;;;;;6152288;23;20545;-62
2021/11/12 09:55:19;;;;;;;20.27;12.93;;;10.10;99.90;;;;;;6175329;23;20600;-62
2021/11/12 09:57:45;;;;;;;19.80;13.07;;;10.10;99.90;;;;;;6149486;23;20589;-63
2021/11/12 10:00:18;;;;;;;18.53;12.07;;;10.10;99.90;;;;;;6150428;23;20553;-63
2021/11/12 10:02:45;;;;;;;17.57;10.73;;;10.10;99.90;;;;;;6151742;23;20498;-63
2021/11/12 10:05:13;;;;;;;17.27;11.13;;;10.10;99.90;;;;;;6152079;23;21138;-62
2021/11/12 10:07:39;;;;;;;17.93;10.10;;;10.10;99.90;;;;;;6151413;23;20534;-63
2021/11/12 10:10:10;;;;;;;15.50;10.23;;;10.20;99.90;;;;;;6151742;23;20587;-62
2021/11/12 10:12:51;;;;;;;15.00;10.40;;;10.10;99.90;;;;;;6152646;23;20575;-63
2021/11/12 10:15:34;;;;;;;18.33;10.87;;;10.10;99.90;;;;;;6151856;23;20552;-63
2021/11/12 10:18:08;;;;;;;14.53;9.80;;;10.10;99.90;;;;;;6154350;23;20506;-63
2021/11/12 10:20:35;;;;;;;13.03;9.87;;;10.10;99.90;;;;;;6153977;23;20605;-62
2021/11/12 10:23:16;;;;;;;11.40;9.50;;;10.20;99.90;;;;;;6153784;23;20983;-62
2021/11/12 10:26:04;;;;;;;10.67;8.57;;;10.10;99.90;;;;;;6153593;23;20616;-62
2021/11/12 10:28:42;;;;;;;10.70;8.90;;;10.20;99.90;;;;;;6154104;23;20559;-62
2021/11/12 10:31:19;;;;;;;10.93;8.60;;;10.20;99.90;;;;;;6153426;23;20655;-62
2021/11/12 10:33:51;;;;;;;11.07;8.30;;;10.30;99.90;;;;;;6153766;23;20503;-62
2021/11/12 10:36:20;;;;;;;10.77;8.37;;;10.30;99.90;;;;;;6154381;23;20541;-63
2021/11/12 10:38:52;;;;;;;9.93;8.30;;;10.20;99.90;;;;;;6153864;23;21124;-62
2021/11/12 10:41:23;;;;;;;9.67;8.67;;;10.20;99.90;;;;;;6152032;23;20663;-62
2021/11/12 10:43:52;;;;;;;11.33;9.17;;;10.20;99.90;;;;;;6152482;23;20557;-63
2021/11/12 10:46:36;;;;;;;9.63;8.63;;;10.30;99.90;;;;;;6152286;23;20621;-63
2021/11/12 10:49:22;;;;;;;11.00;9.90;;;10.40;99.90;;;;;;6154989;23;20498;-63
2021/11/12 10:51:55;;;;;;;10.80;9.70;;;10.40;99.90;;;;;;6150693;23;20588;-62
2021/11/12 10:54:59;;;;;;;10.40;8.97;;;10.50;99.90;;;;;;6154150;23;20493;-63
2021/11/12 10:57:32;;;;;;;10.10;9.03;;;10.60;99.90;;;;;;6153572;23;20504;-63
2021/11/12 11:00:24;;;;;;;12.33;10.13;;;10.60;99.90;;;;;;6153161;23;20894;-62
2021/11/12 11:03:03;;;;;;;9.90;8.90;;;10.50;99.90;;;;;;6153385;23;20498;-62
2021/11/12 11:05:50;;;;;;;11.80;10.13;;;10.60;99.90;;;;;;6152860;23;20561;-63
2021/11/12 11:08:24;;;;;;;11.40;9.13;;;10.50;99.90;;;;;;6153083;23;20528;-63
2021/11/12 11:11:02;;;;;;;12.27;10.17;;;10.60;99.90;;;;;;6151295;23;21176;-62
2021/11/12 11:13:36;;;;;;;11.57;10.10;;;10.60;99.90;;;;;;6153455;23;20667;-62
2021/11/12 11:16:16;;;;;;;11.70;9.90;;;10.70;99.90;;;;;;6154595;23;20528;-63
2021/11/12 11:18:51;;;;;;;12.90;11.03;;;10.70;99.90;;;;;;6152039;23;21082;-62
2021/11/12 11:24:04;;;;;;;12.03;9.30;;;10.80;99.90;;;;;;6164528;23;20560;-62
2021/11/12 11:26:36;;;;;;;11.90;9.37;;;10.80;99.90;;;;;;6153809;23;20537;-62
2021/11/12 11:29:03;;;;;;;11.50;8.70;;;10.90;99.90;;;;;;6154420;23;20775;-64
2021/11/12 11:31:30;;;;;;;10.93;9.00;;;10.90;99.90;;;;;;6175785;23;21204;-63
2021/11/12 11:33:58;;;;;;;10.33;8.73;;;10.90;99.90;;;;;;6153869;23;20533;-62
2021/11/12 11:36:30;;;;;;;10.93;9.10;;;10.90;99.90;;;;;;6152616;23;20986;-63
2021/11/12 11:38:59;;;;;;;12.13;9.47;;;10.90;99.90;;;;;;6152516;23;20877;-62
2021/11/12 11:41:27;;;;;;;10.23;8.80;;;10.90;99.90;;;;;;6151929;23;20608;-62
2021/11/12 11:43:59;;;;;;;11.50;8.77;;;11.00;99.90;;;;;;6150918;23;20595;-62
2021/11/12 11:46:27;;;;;;;11.07;9.33;;;11.00;99.90;;;;;;6153257;23;20588;-63
2021/11/12 11:48:57;;;;;;;10.83;8.47;;;11.00;99.90;;;;;;6151137;23;21108;-63
2021/11/12 11:51:37;;;;;;;11.47;9.30;;;11.00;99.90;;;;;;6153016;23;20588;-63
2021/11/12 11:54:08;;;;;;;10.23;8.60;;;11.00;99.90;;;;;;6148119;23;20880;-63
2021/11/12 11:56:44;;;;;;;9.97;7.93;;;11.00;99.90;;;;;;6154981;23;20597;-64
2021/11/12 11:59:24;;;;;;;10.60;8.10;;;10.80;99.90;;;;;;6153380;23;20545;-63
2021/11/12 12:01:57;;;;;;;11.27;7.90;;;10.80;99.90;;;;;;6151794;23;20591;-64
2021/11/12 12:04:40;;;;;;;10.00;8.50;;;10.90;99.90;;;;;;6149699;23;20655;-64
2021/11/12 12:07:16;;;;;;;11.30;8.10;;;11.00;99.90;;;;;;6153097;23;20534;-63
2021/11/12 12:10:18;;;;;;;11.30;8.30;;;11.00;99.90;;;;;;6149251;23;20596;-64
2021/11/12 12:12:56;;;;;;;9.90;7.10;;;11.00;99.90;;;;;;6152168;23;20960;-64
2021/11/12 12:15:22;;;;;;;9.57;8.30;;;11.00;99.90;;;;;;6152152;23;20919;-64
2021/11/12 12:18:10;;;;;;;9.87;8.10;;;11.00;99.90;;;;;;6152010;23;20541;-63
2021/11/12 13:26:10;;;;;;;11.07;9.37;;;11.00;99.90;;;;;;6151490;23;20513;-66
2021/11/12 13:28:40;;;;;;;10.80;8.70;;;11.00;99.90;;;;;;6152850;23;20540;-65
2021/11/12 13:31:20;;;;;;;8.83;7.50;;;10.90;99.90;;;;;;6151622;23;20597;-65
2021/11/12 13:33:49;;;;;;;11.40;9.20;;;11.00;99.90;;;;;;6154340;23;20498;-65
2021/11/12 13:36:32;;;;;;;12.90;8.87;;;11.00;99.90;;;;;;6154424;23;20534;-65
2021/11/12 13:39:02;;;;;;;9.70;8.20;;;10.90;99.90;;;;;;6152474;23;20851;-65
2021/11/12 13:41:42;;;;;;;9.90;8.13;;;10.90;99.90;;;;;;6152074;23;21160;-65
2021/11/12 13:44:22;;;;;;;8.40;7.03;;;10.80;99.90;;;;;;6151761;23;20596;-66
2021/11/12 13:47:02;;;;;;;7.93;7.03;;;10.80;99.90;;;;;;6153767;23;20548;-65
2021/11/12 13:49:43;;;;;;;9.40;7.60;;;10.90;99.90;;;;;;6152953;23;20625;-65
2021/11/12 13:52:16;;;;;;;9.40;7.30;;;10.90;99.90;;;;;;6152513;23;20597;-65
2021/11/12 13:54:49;;;;;;;8.37;6.43;;;10.80;99.90;;;;;;6152042;23;20654;-65
2021/11/12 13:57:20;;;;;;;8.97;6.47;;;10.80;99.90;;;;;;6152947;23;20545;-65
2021/11/12 14:00:01;;;;;;;6.77;5.67;;;10.80;99.90;;;;;;6152576;23;20573;-65
2021/11/12 14:02:32;;;;;;;6.20;5.23;;;10.70;99.90;;;;;;6151424;23;20612;-65
2021/11/12 14:05:12;;;;;;;5.20;4.70;;;10.70;99.90;;;;;;6150265;23;20595;-65
2021/11/12 14:07:38;;;;;;;5.57;4.57;;;10.60;99.90;;;;;;6152104;23;20565;-66
2021/11/12 14:10:12;;;;;;;4.30;3.80;;;10.70;99.90;;;;;;6150370;23;20564;-65
2021/11/12 14:12:53;;;;;;;5.03;3.87;;;10.70;99.90;;;;;;6151584;23;20489;-65
2021/11/12 14:18:06;;;;;;;4.50;3.57;;;10.50;99.90;;;;;;6162159;23;20887;-65
2021/11/12 14:20:52;;;;;;;4.30;3.50;;;10.60;99.90;;;;;;6150231;23;20596;-65
2021/11/12 14:23:21;;;;;;;5.07;3.60;;;10.60;99.90;;;;;;6150170;23;20627;-65
2021/11/12 14:26:23;;;;;;;4.10;3.70;;;10.60;99.90;;;;;;6152633;23;20538;-65
2021/11/12 14:28:55;;;;;;;4.60;4.10;;;10.40;99.90;;;;;;6151230;23;20565;-65
2021/11/12 14:32:00;;;;;;;4.00;3.53;;;10.50;99.90;;;;;;6151417;23;20589;-66
2021/11/12 14:34:52;;;;;;;7.80;4.27;;;10.50;99.90;;;;;;6151927;23;20502;-65
2021/11/12 14:37:37;;;;;;;4.83;4.17;;;10.50;99.90;;;;;;6151444;23;20596;-65
2021/11/12 14:40:07;;;;;;;6.00;4.70;;;10.50;99.90;;;;;;6150683;23;20568;-65
2021/11/12 14:42:58;;;;;;;5.53;4.13;;;10.50;99.90;;;;;;6152939;23;20545;-65
2021/11/12 14:48:52;;;;;;;6.53;5.07;;;10.40;99.90;;;;;;6117551;23;20649;-65
2021/11/12 14:51:25;;;;;;;5.83;4.97;;;10.40;99.90;;;;;;6149992;23;20688;-65
2021/11/12 14:54:09;;;;;;;5.40;4.90;;;10.30;99.90;;;;;;6151660;23;20509;-65
2021/11/12 14:56:35;;;;;;;6.03;5.20;;;10.40;99.90;;;;;;6153368;23;20501;-65
2021/11/12 14:59:05;;;;;;;6.50;5.53;;;10.40;99.90;;;;;;6152003;23;20553;-65
2021/11/12 15:01:41;;;;;;;6.67;5.47;;;10.30;99.90;;;;;;6152742;23;20737;-65
2021/11/12 15:04:11;;;;;;;7.60;6.10;;;10.20;99.90;;;;;;6152795;23;20556;-66
2021/11/12 15:06:39;;;;;;;8.47;6.10;;;10.40;99.90;;;;;;6153921;23;20552;-65
2021/11/12 15:09:28;;;;;;;6.60;5.47;;;10.30;99.90;;;;;;6153205;23;20606;-65
2021/11/12 15:11:54;;;;;;;7.53;6.70;;;10.40;99.90;;;;;;6153830;23;20593;-65
2021/11/12 15:14:29;;;;;;;6.43;5.80;;;10.30;99.90;;;;;;6153267;23;20622;-66
2021/11/12 15:16:55;;;;;;;7.17;6.30;;;10.30;99.90;;;;;;6154759;23;20537;-65
2021/11/12 15:19:24;;;;;;;10.33;7.33;;;10.40;99.90;;;;;;6152989;23;20565;-65
2021/11/12 15:27:07;;;;;;;8.60;7.10;;;10.30;99.90;;;;;;6163541;23;20516;-65
2021/11/12 15:29:39;;;;;;;8.70;7.10;;;10.40;99.90;;;;;;6152576;23;20587;-65
2021/11/12 15:32:13;;;;;;;8.30;7.40;;;10.30;99.90;;;;;;6152432;23;20593;-65
2021/11/12 15:34:54;;;;;;;8.63;7.70;;;10.40;99.90;;;;;;6151532;23;20556;-65
2021/11/12 15:44:44;;;;;;;10.57;8.60;;;10.20;99.90;;;;;;6153866;23;20624;-65
2021/11/12 15:47:22;;;;;;;8.87;7.97;;;10.20;99.90;;;;;;6153140;23;20544;-65
2021/11/12 15:49:56;;;;;;;10.40;8.70;;;10.10;99.90;;;;;;6152228;23;20560;-65
2021/11/12 15:52:30;;;;;;;10.97;8.00;;;10.00;99.90;;;;;;6151996;23;20671;-65
2021/11/12 15:55:09;;;;;;;10.77;9.00;;;10.00;99.90;;;;;;6151766;23;20906;-65
2021/11/12 16:05:40;;;;;;;10.60;9.50;;;9.90;99.90;;;;;;6162195;23;20568;-65
2021/11/12 16:08:15;;;;;;;11.70;10.10;;;9.80;99.90;;;;;;6152217;23;20562;-65
2021/11/12 16:15:58;;;;;;;12.53;10.43;;;9.70;99.90;;;;;;6166700;23;21081;-65
2021/11/12 16:26:00;;;;;;;12.70;11.30;;;9.60;99.90;;;;;;6165946;23;20505;-65
2021/11/12 16:28:33;;;;;;;13.23;10.60;;;9.60;99.90;;;;;;6158151;23;20522;-64
2021/11/12 16:31:03;;;;;;;12.00;10.23;;;9.60;99.90;;;;;;6160928;23;20592;-64
2021/11/12 16:33:33;;;;;;;14.37;11.57;;;9.60;99.90;;;;;;6153655;23;20542;-64
2021/11/12 16:36:05;;;;;;;14.00;11.70;;;9.50;99.90;;;;;;6176124;23;20577;-64
2021/11/12 16:38:33;;;;;;;13.57;12.17;;;9.40;99.90;;;;;;6152902;23;20573;-64
2021/11/12 16:41:09;;;;;;;14.20;12.70;;;9.40;99.90;;;;;;6150371;23;20620;-64
2021/11/12 16:49:19;;;;;;;14.07;12.50;;;9.40;99.90;;;;;;6148915;23;20564;-66
2021/11/12 16:54:23;;;;;;;18.37;14.40;;;9.50;99.90;;;;;;6151382;23;20501;-64
2021/11/12 16:57:17;;;;;;;22.53;14.93;;;9.30;99.90;;;;;;6148379;23;21094;-66
2021/11/12 16:59:59;;;;;;;18.37;14.50;;;9.20;99.90;;;;;;6151051;23;20569;-66
2021/11/12 17:18:13;;;;;;;21.43;15.47;;;9.10;99.90;;;;;;6160849;23;20506;-65
2021/11/12 17:47:59;;;;;;;22.27;17.90;;;8.90;99.90;;;;;;6150485;23;20529;-66
2021/11/12 17:50:55;;;;;;;21.50;16.60;;;9.00;99.90;;;;;;6149401;23;20628;-65
2021/11/12 18:04:11;;;;;;;20.00;15.57;;;8.70;99.90;;;;;;6151782;23;20568;-66
2021/11/12 18:06:44;;;;;;;21.60;17.30;;;8.80;99.90;;;;;;6151345;23;20502;-66
2021/11/12 21:46:37;;;;;;;35.97;23.27;;;7.30;99.90;;;;;;6159964;23;20511;-65
2021/11/12 21:49:02;;;;;;;34.87;22.53;;;7.30;99.90;;;;;;6150361;23;20636;-65
2021/11/12 21:51:32;;;;;;;36.47;22.70;;;7.30;99.90;;;;;;6148983;23;20228;-65
2021/11/12 21:54:02;;;;;;;32.87;21.80;;;7.30;99.90;;;;;;6147808;23;20582;-65
2021/11/12 21:56:29;;;;;;;34.83;21.57;;;7.40;99.90;;;;;;6150710;23;20525;-65
2021/11/12 21:58:55;;;;;;;35.33;21.87;;;7.30;99.90;;;;;;6150325;23;20537;-66
2021/11/12 22:01:23;;;;;;;35.80;23.20;;;7.40;99.90;;;;;;6148389;23;20589;-65
2021/11/12 22:03:49;;;;;;;35.97;23.47;;;7.40;99.90;;;;;;6147350;23;20177;-65
2021/11/12 22:06:15;;;;;;;36.40;22.03;;;7.40;99.90;;;;;;6175120;23;20572;-65
2021/11/12 22:08:53;;;;;;;;;;;;;;;;;;;;;
2021/11/12 22:11:19;;;;;;;39.13;23.90;;;7.20;99.90;;;;;;6152733;23;20288;-65
2021/11/12 22:13:45;;;;;;;35.93;23.50;;;7.20;99.90;;;;;;6150755;23;20980;-65
2021/11/12 22:16:15;;;;;;;38.20;24.27;;;7.20;99.90;;;;;;6150445;23;20773;-66
2021/11/12 22:18:45;;;;;;;38.00;23.00;;;7.10;99.90;;;;;;6153250;23;20908;-66
2021/11/12 22:21:13;;;;;;;36.87;21.83;;;7.20;99.90;;;;;;6151348;23;20597;-66
2021/11/12 22:23:42;;;;;;;36.30;22.47;;;7.20;99.90;;;;;;6153106;23;20697;-66
2021/11/12 22:26:10;;;;;;;35.37;21.40;;;7.20;99.90;;;;;;6153181;23;20542;-66
2021/11/12 22:28:36;;;;;;;38.50;23.47;;;7.20;99.90;;;;;;6151425;23;20912;-65
2021/11/12 22:31:03;;;;;;;40.53;22.73;;;7.20;99.90;;;;;;6152034;23;20593;-66
2021/11/12 22:33:30;;;;;;;35.30;22.80;;;7.20;99.90;;;;;;6175528;23;20625;-66
2021/11/12 22:36:02;;;;;;;35.80;23.37;;;7.10;99.90;;;;;;6152205;23;20569;-66
2021/11/12 22:38:27;;;;;;;43.10;23.10;;;7.10;99.90;;;;;;6152978;23;20494;-66
2021/11/12 22:40:53;;;;;;;39.50;22.30;;;7.20;99.90;;;;;;6152335;23;20599;-65
2021/11/12 22:43:22;;;;;;;34.70;21.93;;;7.20;99.90;;;;;;6151870;23;20165;-65
2021/11/12 22:45:51;;;;;;;35.00;21.60;;;7.20;99.90;;;;;;6153035;23;20555;-66
2021/11/12 22:48:19;;;;;;;37.33;24.30;;;7.30;99.90;;;;;;6153715;23;21077;-65
2021/11/12 22:50:50;;;;;;;40.10;23.00;;;7.10;99.90;;;;;;6151587;23;20672;-66